Latest Weather Observations for Goulburn Airport

IDN60901

Issued at 1:21 am EST Thursday 28 July 2016 (issued every 10 minutes, with the page automatically refreshed every 10 minutes)

About weather observations | Map of Canberra area stations | Latest observations for Canberra area | Other Formats
Station Details ID: 070330 Name: GOULBURN AIRPORT AWS Lat: -34.81 Lon: 149.73 Height: 640.0 m
Data from the previous 72 hours. | See also: Recent months at Goulburn Airport
Date/Time
EST
Temp
°C
App
Temp
°C
Dew
Point
°C
Rel
Hum
%
Delta-T
°C
Wind Press
QNH
hPa
Press
MSL
hPa
Rain since
9am
mm
Dir  Spd
km/h
Gust
km/h
Spd
kts
Gust
kts
28/01:01am 5.6 0.6 3.6 87 0.9 NW 19 26 10 14 1021.6 1022.7 0.4
28/01:00am 5.6 0.6 3.6 87 0.9 NW 19 26 10 14 1021.7 1022.8 0.4
28/12:30am 6.1 2.8 4.7 91 0.6 N 11 17 6 9 1021.8 1022.9 0.4
28/12:00am 6.3 1.5 4.5 88 0.8 W 19 33 10 18 1021.8 1022.9 0.4
 
Date/Time
EST
Temp
°C
App
Temp
°C
Dew
Point
°C
Rel
Hum
%
Delta-T
°C
Wind Press
QNH
hPa
Press
MSL
hPa
Rain since
9am
mm
Dir  Spd
km/h
Gust
km/h
Spd
kts
Gust
kts
27/11:30pm 6.3 0.1 4.5 88 0.8 W 26 37 14 20 1021.6 1022.7 0.4
27/11:11pm 6.2 0.0 4.5 89 0.8 W 26 35 14 19 1020.9 1022.1 0.4
27/11:10pm 6.2 0.0 4.4 88 0.8 W 26 33 14 18 1021.0 1022.2 0.4
27/11:00pm 6.4 -0.5 4.4 87 0.9 W 30 41 16 22 1020.8 1022.0 0.4
27/10:30pm 6.4 0.6 4.4 87 0.9 WNW 24 39 13 21 1020.4 1021.5 0.4
27/10:00pm 6.4 0.9 4.2 86 1.0 NW 22 33 12 18 1019.9 1021.0 0.4
27/09:50pm 6.4 1.5 4.2 86 1.0 NW 19 28 10 15 1020.0 1021.1 0.4
27/09:37pm 6.3 0.5 4.3 87 0.9 WNW 24 35 13 19 1020.0 1021.1 0.4
27/09:30pm 6.2 0.4 4.4 88 0.8 WNW 24 33 13 18 1020.0 1021.1 0.4
27/09:00pm 6.4 1.5 4.9 90 0.7 W 20 35 11 19 1020.4 1021.5 0.4
27/08:30pm 6.5 2.6 5.5 93 0.5 WNW 15 28 8 15 1020.3 1021.4 0.0
27/08:00pm 6.5 2.2 5.3 92 0.5 W 17 26 9 14 1019.6 1020.8 0.0
27/07:30pm 6.7 0.2 4.7 87 0.9 W 28 37 15 20 1019.2 1020.3 0.0
27/07:25pm 6.6 -0.3 4.4 86 1.0 W 30 39 16 21 1019.2 1020.3 0.0
27/07:00pm 6.4 -1.2 3.9 84 1.1 W 33 46 18 25 1018.6 1019.7 0.0
27/06:30pm 6.5 -1.6 3.1 79 1.5 W 35 44 19 24 1018.0 1019.2 0.0
27/06:00pm 6.7 -0.9 2.6 75 1.8 W 32 46 17 25 1017.6 1018.7 0.0
27/05:30pm 7.0 0.2 3.1 76 1.7 WNW 28 39 15 21 1017.4 1018.5 0.0
27/05:00pm 7.8 0.3 3.5 74 1.9 W 32 39 17 21 1016.8 1017.9 0.0
27/04:30pm 8.0 -1.6 3.5 73 2.0 W 43 54 23 29 1016.0 1017.1 0.0
27/04:00pm 8.4 0.5 4.6 77 1.7 W 35 52 19 28 1015.5 1016.6 0.0
27/03:59pm 8.5 1.0 4.7 77 1.7 W 33 52 18 28 1015.5 1016.6 0.0
27/03:33pm 8.6 1.4 5.0 78 1.7 WNW 32 43 17 23 1015.1 1016.1 0.0
27/03:30pm 8.3 0.8 4.5 77 1.7 WNW 33 46 18 25 1015.2 1016.2 0.0
27/03:06pm 8.3 1.5 4.9 79 1.6 WNW 30 48 16 26 1014.9 1015.9 0.0
27/03:00pm 9.9 4.2 6.6 80 1.6 W 26 37 14 20 1015.0 1016.0 0.0
27/02:55pm 8.6 1.9 5.4 80 1.5 WNW 30 43 16 23 1014.9 1015.9 0.0
27/02:30pm 8.7 0.6 5.3 79 1.6 WNW 37 48 20 26 1014.4 1015.5 0.0
27/02:00pm 9.0 0.5 5.2 77 1.8 WNW 39 52 21 28 1014.1 1015.2 0.0
27/01:30pm 9.3 0.0 4.9 74 2.0 WNW 43 61 23 33 1013.5 1014.5 0.0
27/01:21pm 9.1 0.6 5.3 77 1.8 WNW 39 57 21 31 1013.6 1014.6 0.0
27/01:00pm 8.2 -1.2 4.6 78 1.6 WNW 43 54 23 29 1013.4 1014.4 0.0
27/12:40pm 8.1 -0.4 5.0 81 1.4 W 39 50 21 27 1013.6 1014.6 0.0
27/12:30pm 7.7 -0.8 5.2 84 1.2 W 39 50 21 27 1013.8 1014.8 0.0
27/12:00pm 8.0 -0.3 6.1 88 0.9 W 39 57 21 31 1013.3 1014.3 0.0
27/11:48am 7.8 -1.5 5.1 83 1.2 WNW 43 63 23 34 1013.0 1014.1 0.0
27/11:47am 7.9 -1.0 5.2 83 1.2 WNW 41 63 22 34 1013.0 1014.1 0.0
27/11:30am 7.6 -1.8 4.7 82 1.3 W 43 56 23 30 1012.8 1013.9 0.0
27/11:19am 8.4 -1.4 5.2 80 1.5 W 46 65 25 35 1012.6 1013.6 0.0
27/11:08am 7.8 -2.1 4.7 81 1.4 WNW 46 65 25 35 1012.6 1013.6 0.0
27/11:00am 7.2 -2.4 4.3 82 1.3 W 44 57 24 31 1012.6 1013.6 0.0
27/10:36am 6.9 -1.6 5.2 89 0.8 WNW 39 57 21 31 1012.7 1013.7 0.0
27/10:30am 6.9 -1.2 5.4 90 0.7 W 37 50 20 27 1012.7 1013.7 0.0
27/10:01am 7.2 -1.4 4.5 83 1.2 WNW 39 61 21 33 1012.3 1013.3 0.0
27/10:00am 7.3 -1.2 5.0 85 1.1 WNW 39 54 21 29 1012.4 1013.4 0.0
27/09:45am 7.2 -1.0 4.5 83 1.2 WNW 37 56 20 30 1012.1 1013.1 0.0
27/09:30am 6.7 -1.2 4.5 86 1.0 WNW 35 52 19 28 1012.1 1013.1 0.0
27/09:13am 6.5 -1.0 4.3 86 1.0 WNW 33 46 18 25 1011.9 1012.9 0.0
27/09:00am 6.5 -1.8 4.0 84 1.1 WNW 37 50 20 27 1011.6 1012.6 3.8
27/08:52am 6.6 -1.3 4.3 85 1.0 WNW 35 46 19 25 1011.6 1012.6 3.8
27/08:30am 6.2 -1.6 4.8 91 0.6 WNW 35 56 19 30 1011.4 1012.5 3.8
27/08:26am 6.2 -1.0 5.0 92 0.5 WNW 32 52 17 28 1011.2 1012.2 3.6
27/08:00am 5.9 0.6 4.9 93 0.5 WNW 22 30 12 16 1011.1 1012.1 3.2
27/07:30am 6.1 1.2 4.9 92 0.5 WNW 20 32 11 17 1011.0 1012.0 2.2
27/07:00am 6.4 -0.4 4.9 90 0.7 WNW 30 41 16 22 1010.6 1011.6 1.0
27/06:58am 6.4 -0.4 4.9 90 0.7 WNW 30 41 16 22 1010.5 1011.5 1.0
27/06:30am 7.0 -0.9 4.3 83 1.2 NW 35 48 19 26 1010.1 1011.0 0.4
27/06:00am 7.1 0.2 4.4 83 1.2 NW 30 39 16 21 1010.0 1010.9 0.2
27/05:30am 7.1 -0.3 4.2 82 1.3 NW 32 46 17 25 1010.1 1011.0 0.2
27/05:00am 6.6 -0.8 4.1 84 1.1 NW 32 43 17 23 1010.2 1011.2 0.2
27/04:30am 6.4 -1.5 4.1 85 1.0 NW 35 46 19 25 1010.4 1011.4 0.2
27/04:00am 5.7 -0.4 3.0 83 1.2 NW 24 32 13 17 1010.5 1011.5 0.0
27/03:30am 5.3 -0.8 3.0 85 1.0 NW 24 32 13 17 1011.0 1012.0 0.0
27/03:00am 5.3 0.0 2.8 84 1.1 NW 20 26 11 14 1011.2 1012.2 0.0
27/02:30am 5.8 -0.2 3.1 83 1.2 NW 24 32 13 17 1011.7 1012.7 0.0
27/02:00am 5.0 0.3 2.9 86 0.9 WNW 17 24 9 13 1012.0 1013.0 0.0
27/01:30am 5.4 -1.5 2.4 81 1.3 NW 28 33 15 18 1011.9 1012.9 0.0
27/01:00am 5.7 -3.0 2.2 78 1.5 NW 37 50 20 27 1012.0 1013.0 0.0
27/12:30am 5.4 -1.4 2.9 84 1.1 WNW 28 37 15 20 1012.5 1013.5 0.0
27/12:01am 5.8 -2.5 2.3 78 1.5 WNW 35 54 19 29 1012.6 1013.6 0.0
27/12:00am 6.0 -2.7 2.3 77 1.6 WNW 37 54 20 29 1012.5 1013.5 0.0
 
Date/Time
EST
Temp
°C
App
Temp
°C
Dew
Point
°C
Rel
Hum
%
Delta-T
°C
Wind Press
QNH
hPa
Press
MSL
hPa
Rain since
9am
mm
Dir  Spd
km/h
Gust
km/h
Spd
kts
Gust
kts
26/11:35pm 5.9 -1.7 2.7 80 1.4 WNW 32 50 17 27 1012.3 1013.3 0.0
26/11:30pm 5.8 -1.4 2.8 81 1.3 WNW 30 43 16 23 1012.4 1013.4 0.0
26/11:00pm 5.7 -1.2 2.7 81 1.3 WNW 28 46 15 25 1012.8 1013.9 0.0
26/10:30pm 5.5 -2.2 2.3 80 1.4 WNW 32 44 17 24 1013.0 1014.1 0.0
26/10:00pm 6.3 -2.7 2.4 76 1.7 WNW 39 65 21 35 1013.3 1014.3 0.0
26/09:58pm 6.4 -1.8 2.5 76 1.7 WNW 35 59 19 32 1013.1 1014.2 0.0
26/09:30pm 6.1 -0.5 2.0 75 1.7 NW 26 37 14 20 1013.0 1014.1 0.0
26/09:00pm 6.1 -0.5 2.2 76 1.7 NW 26 37 14 20 1013.5 1014.5 0.0
26/08:30pm 6.2 0.7 2.1 75 1.7 NW 20 30 11 16 1013.8 1014.8 0.0
26/08:00pm 6.4 -0.2 1.9 73 1.9 NW 26 39 14 21 1013.6 1014.6 0.0
26/07:30pm 6.4 -0.3 1.7 72 2.0 WNW 26 35 14 19 1013.6 1014.6 0.0
26/07:00pm 6.5 -0.6 1.4 70 2.1 NW 28 39 15 21 1013.7 1014.7 0.0
26/06:30pm 6.1 0.2 1.4 72 2.0 NW 22 32 12 17 1013.7 1014.7 0.0
26/06:00pm 6.3 -0.2 0.6 67 2.3 NW 24 35 13 19 1013.7 1014.7 0.0
26/05:30pm 6.6 -0.6 0.5 65 2.5 NW 28 39 15 21 1013.4 1014.4 0.0
26/05:00pm 6.9 -0.3 1.0 66 2.5 NW 28 37 15 20 1013.3 1014.3 0.0
26/04:30pm 7.6 0.0 0.8 62 2.8 WNW 30 35 16 19 1012.9 1014.0 0.0
26/04:00pm 7.4 -1.1 0.6 62 2.8 WNW 35 46 19 25 1012.9 1014.0 0.0
26/03:30pm 8.4 -0.5 0.6 58 3.3 WNW 37 52 20 28 1012.9 1014.0 0.0
26/03:25pm 8.2 -0.1 -0.3 55 3.5 WNW 33 52 18 28 1012.9 1014.0 0.0
26/03:00pm 8.2 -0.7 0.7 59 3.1 WNW 37 48 20 26 1013.1 1014.2 0.0
26/02:30pm 8.5 0.1 1.4 61 3.0 WNW 35 44 19 24 1013.3 1014.3 0.0
26/02:00pm 8.9 -0.4 0.9 57 3.4 W 39 48 21 26 1013.1 1014.2 0.0
26/01:30pm 8.4 -1.3 0.4 57 3.3 WNW 41 52 22 28 1013.5 1014.5 0.0
26/01:00pm 8.1 -2.1 -0.4 55 3.5 W 43 54 23 29 1013.6 1014.6 0.0
26/12:50pm 8.1 -1.5 -1.4 51 3.8 WNW 39 57 21 31 1013.7 1014.7 0.0
26/12:30pm 8.4 -0.9 0.6 58 3.3 WNW 39 52 21 28 1013.9 1014.9 0.0
26/12:14pm 8.4 -0.9 0.9 59 3.2 W 39 57 21 31 1014.1 1015.2 0.0
26/12:00pm 8.3 -1.0 0.8 59 3.1 W 39 56 21 30 1014.3 1015.4 0.0
26/11:30am 7.6 -1.7 0.3 60 3.0 W 39 50 21 27 1014.5 1015.6 0.0
26/11:00am 7.5 -0.5 0.3 60 3.0 WNW 32 50 17 27 1015.1 1016.1 0.0
26/10:30am 7.3 -1.3 0.5 62 2.8 WNW 35 56 19 30 1015.4 1016.4 0.0
26/10:20am 6.9 -2.7 1.2 67 2.4 W 41 59 22 32 1015.3 1016.3 0.0
26/10:00am 6.4 -3.8 1.1 69 2.2 W 44 56 24 30 1015.4 1016.4 0.0
26/09:45am 5.8 -3.9 0.6 69 2.1 WNW 41 59 22 32 1015.3 1016.3 0.0
26/09:30am 6.2 -4.0 1.1 70 2.1 WNW 44 59 24 32 1015.2 1016.2 0.0
26/09:00am 6.1 -4.3 1.8 74 1.8 WNW 46 65 25 35 1014.7 1015.8 -
26/08:39am 6.0 -3.8 2.3 77 1.6 WNW 43 61 23 33 1014.9 1015.9 -
26/08:30am 5.7 -4.4 1.6 75 1.7 W 44 61 24 33 1014.7 1015.8 -
26/08:00am 5.5 -4.5 2.0 78 1.5 WNW 44 61 24 33 1014.9 1015.9 -
26/07:46am 5.2 -3.5 1.7 78 1.5 WNW 37 56 20 30 1014.5 1015.6 -
26/07:30am 4.9 -2.6 1.2 77 1.5 WNW 30 41 16 22 1014.3 1015.4 -
26/07:00am 4.9 -4.2 1.7 80 1.3 WNW 39 54 21 29 1013.6 1014.6 -
26/06:35am 5.3 -4.6 2.5 82 1.2 WNW 44 57 24 31 1013.3 1014.3 -
26/06:30am 5.5 -4.8 2.7 82 1.2 WNW 46 57 25 31 1013.1 1014.2 -
26/06:25am 5.5 -4.4 2.7 82 1.2 WNW 44 57 24 31 1013.0 1014.1 -
26/06:18am 5.4 -4.5 2.8 83 1.1 WNW 44 61 24 33 1012.9 1014.0 -
26/06:00am 5.7 -4.1 3.2 84 1.1 WNW 44 65 24 35 1012.8 1013.9 -
26/05:33am 5.9 -3.3 3.7 86 1.0 WNW 41 59 22 32 1013.0 1014.1 -
26/05:30am 5.8 -3.8 3.6 86 1.0 WNW 43 59 23 32 1013.0 1014.1 -
26/05:26am 5.9 -2.9 3.6 85 1.0 WNW 39 57 21 31 1012.8 1013.9 -
26/05:00am 5.8 -2.6 3.6 86 1.0 WNW 37 54 20 29 1012.8 1013.9 -
26/04:30am 6.2 -3.9 3.9 85 1.0 WNW 46 69 25 37 1012.3 1013.3 -
26/04:00am 6.3 -3.3 3.5 82 1.2 NW 43 61 23 33 1011.9 1012.9 -
26/03:40am 6.3 -3.5 3.1 80 1.4 NW 44 63 24 34 1011.9 1012.9 -
26/03:30am 6.3 -3.9 3.1 80 1.4 NW 46 61 25 33 1011.7 1012.7 -
26/03:00am 6.3 -2.6 2.9 79 1.5 NW 39 57 21 31 1012.1 1013.1 0.0
26/02:30am 6.3 -3.4 2.8 78 1.5 WNW 43 59 23 32 1012.1 1013.1 -
26/02:00am 6.4 -4.7 2.7 77 1.6 NW 50 70 27 38 1011.9 1012.9 -
26/01:30am 6.3 -4.0 2.8 78 1.5 NW 46 67 25 36 1011.9 1012.9 -
26/01:17am 6.3 -3.6 2.8 78 1.5 NW 44 63 24 34 1011.8 1012.8 -
26/01:00am 6.3 -3.4 2.6 77 1.6 NW 43 57 23 31 1011.4 1012.5 -
26/12:30am 6.2 -4.4 3.0 80 1.4 NW 48 65 26 35 1011.4 1012.5 -
26/12:00am 6.0 -5.0 3.0 81 1.3 NW 50 70 27 38 1011.8 1012.8 -
 
Date/Time
EST
Temp
°C
App
Temp
°C
Dew
Point
°C
Rel
Hum
%
Delta-T
°C
Wind Press
QNH
hPa
Press
MSL
hPa
Rain since
9am
mm
Dir  Spd
km/h
Gust
km/h
Spd
kts
Gust
kts
25/11:33pm 5.9 -4.3 3.1 82 1.2 NW 46 65 25 35 1012.1 1013.1 -
25/11:30pm 5.8 -4.1 3.0 82 1.2 NW 44 61 24 33 1012.1 1013.1 -
25/11:16pm 5.8 -3.9 2.8 81 1.3 NW 43 69 23 37 1012.1 1013.1 -
25/11:00pm 5.7 -4.2 2.9 82 1.2 NW 44 59 24 32 1012.3 1013.3 -
25/10:30pm 5.6 -4.1 2.6 81 1.3 NW 43 56 23 30 1012.6 1013.6 -
25/10:00pm 5.7 -4.3 2.4 79 1.4 WNW 44 63 24 34 1012.7 1013.7 -
25/09:59pm 5.7 -4.3 2.4 79 1.4 WNW 44 63 24 34 1012.7 1013.7 -
25/09:30pm 5.7 -3.7 2.4 79 1.4 NW 41 54 22 29 1012.6 1013.6 -
25/09:17pm 5.8 -4.0 2.3 78 1.5 NW 43 61 23 33 1012.7 1013.7 -
25/09:00pm 5.6 -3.5 1.9 77 1.6 NW 39 54 21 29 1012.8 1013.9 -
25/08:35pm 5.5 -4.5 2.3 80 1.4 WNW 44 63 24 34 1013.0 1014.1 -
25/08:31pm 5.6 -5.1 2.3 79 1.4 WNW 48 63 26 34 1013.0 1014.1 -
25/08:30pm 5.6 -5.5 2.3 79 1.4 WNW 50 63 27 34 1012.9 1014.0 -
25/08:18pm 5.8 -4.9 2.4 79 1.4 WNW 48 67 26 36 1012.8 1013.9 -
25/08:00pm 5.7 -4.5 3.4 85 1.0 WNW 46 61 25 33 1012.6 1013.6 -
25/07:52pm 5.8 -4.4 3.3 84 1.1 WNW 46 69 25 37 1012.6 1013.6 -
25/07:40pm 5.8 -4.4 3.0 82 1.2 WNW 46 67 25 36 1012.5 1013.5 -
25/07:33pm 5.8 -4.8 3.0 82 1.2 WNW 48 63 26 34 1012.5 1013.5 -
25/07:30pm 5.8 -5.2 3.1 83 1.2 WNW 50 63 27 34 1012.5 1013.5 -
25/07:07pm 5.9 -4.3 3.4 84 1.1 WNW 46 65 25 35 1012.2 1013.2 -
25/07:00pm 5.7 -4.8 3.4 85 1.0 WNW 48 61 26 33 1012.0 1013.0 -
25/06:30pm 5.7 -4.8 3.7 87 0.9 WNW 48 65 26 35 1011.4 1012.5 -
25/06:25pm 5.9 -4.6 3.6 85 1.0 WNW 48 65 26 35 1011.4 1012.5 -
25/06:04pm 5.8 -2.1 4.4 91 0.6 WNW 35 54 19 29 1011.6 1012.6 -
25/06:00pm 5.9 -2.4 4.2 89 0.8 WNW 37 54 20 29 1011.4 1012.5 -
25/05:30pm 6.2 -1.9 3.4 82 1.2 NW 35 46 19 25 1011.4 1012.5 -
25/05:14pm 6.3 -0.8 3.6 83 1.2 NW 30 50 16 27 1011.7 1012.7 -
25/05:06pm 6.4 3.8 4.1 85 1.0 W 7 41 4 22 1011.8 1012.8 -
25/05:00pm 6.6 3.9 3.8 82 1.2 W 7 30 4 16 1011.9 1012.9 -

Latest Capital City Observations: Canberra | Sydney | Melbourne | Brisbane | Adelaide | Perth | Hobart | Darwin

Other Formats:

Comma delimited format used in spreadsheet applications
http://www.bom.gov.au/fwo/IDN60903/IDN60903.95716.axf

JavaScript Object Notation format (JSON) in row-major order
http://www.bom.gov.au/fwo/IDN60903/IDN60903.95716.json